Terminal Aerodrome Forecast
Issued by NWS

Home | Current Version | Previous Version | Text Only | Print | Product List | Glossary Off
Versions: 1 2 3 4 5 6 7 8 9 10 11 12 13 14 15 16

000
FTUS43 KGRB 251700
TAFCWA
TAF
KCWA 251729Z 2518/2618 22010G16KT P6SM SCT025 SCT200
     FM252300 27004KT P6SM BKN200
     FM260600 31005KT P6SM BKN200
     FM261500 31008KT P6SM SCT250=

USA.gov is the U.S. government's official web portal to all federal, state and local government web resources and services.